Time;durP1;ratioP1;P1;durP2;ratioP2;P2;SDS_P1;SDS_P2;PMS_P1;PMS_P2;Temp;Humidity;BMP_temperature;BMP_pressure;BME280_temperature;BME280_humidity;BME280_pressure;Samples;Min_cycle;Max_cycle;Signal;HPM_P1;HPM_P2
2021/09/03 00:00:14;;;;;;;17.10;14.60;;;12.20;99.90;;;;;;5008396;28;20450;-66
2021/09/03 00:02:43;;;;;;;19.07;15.93;;;12.10;99.90;;;;;;5008143;28;20505;-66
2021/09/03 00:05:13;;;;;;;17.77;14.60;;;12.00;99.90;;;;;;5008171;28;20464;-66
2021/09/03 00:07:40;;;;;;;20.63;15.13;;;12.10;99.90;;;;;;5008879;28;20452;-66
2021/09/03 00:10:10;;;;;;;19.33;15.27;;;12.10;99.90;;;;;;5008108;28;20528;-66
2021/09/03 00:12:37;;;;;;;17.03;14.20;;;12.10;99.90;;;;;;5007395;28;20493;-65
2021/09/03 00:15:04;;;;;;;17.17;14.70;;;12.10;99.90;;;;;;5007838;28;20472;-65
2021/09/03 00:17:31;;;;;;;16.57;13.80;;;12.00;99.90;;;;;;5007973;28;20468;-65
2021/09/03 00:20:00;;;;;;;17.37;15.40;;;11.90;99.90;;;;;;5008085;28;20457;-66
2021/09/03 00:22:27;;;;;;;18.37;15.27;;;11.90;99.90;;;;;;5008030;28;20454;-65
2021/09/03 00:24:53;;;;;;;20.00;14.83;;;11.90;99.90;;;;;;5008315;28;20934;-65
2021/09/03 00:27:20;;;;;;;19.50;14.90;;;11.90;99.90;;;;;;5011980;28;20441;-65
2021/09/03 00:29:47;;;;;;;16.17;13.97;;;11.80;99.90;;;;;;5013325;28;21053;-65
2021/09/03 00:32:14;;;;;;;17.27;14.50;;;11.80;99.90;;;;;;5007431;28;20525;-65
2021/09/03 00:34:41;;;;;;;19.77;15.10;;;11.70;99.90;;;;;;5008156;28;20454;-65
2021/09/03 00:37:09;;;;;;;17.90;16.00;;;11.70;99.90;;;;;;5008024;28;20456;-66
2021/09/03 00:39:37;;;;;;;19.43;14.30;;;11.70;99.90;;;;;;5008121;28;20458;-66
2021/09/03 00:42:10;;;;;;;21.40;15.73;;;11.60;99.90;;;;;;5007688;28;20476;-65
2021/09/03 00:44:36;;;;;;;19.40;16.63;;;11.60;99.90;;;;;;5007995;28;20508;-66
2021/09/03 00:47:04;;;;;;;16.93;15.03;;;11.60;99.90;;;;;;5007856;28;20457;-65
2021/09/03 00:49:31;;;;;;;18.93;15.20;;;11.60;99.90;;;;;;5007803;28;20454;-66
2021/09/03 00:51:59;;;;;;;18.00;15.97;;;11.60;99.90;;;;;;5009333;28;20489;-66
2021/09/03 00:54:27;;;;;;;17.33;15.13;;;11.70;99.90;;;;;;5010944;28;20472;-66
2021/09/03 00:56:54;;;;;;;20.53;16.40;;;11.50;99.90;;;;;;5005045;28;20544;-66
2021/09/03 00:59:21;;;;;;;16.30;13.57;;;11.40;99.90;;;;;;5010921;28;20454;-66
2021/09/03 01:01:48;;;;;;;15.17;13.47;;;11.40;99.90;;;;;;5010624;28;20446;-66
2021/09/03 01:04:15;;;;;;;18.20;16.00;;;11.40;99.90;;;;;;5010585;28;20480;-66
2021/09/03 01:06:41;;;;;;;18.10;15.00;;;11.40;99.90;;;;;;5010672;28;20815;-66
2021/09/03 01:09:08;;;;;;;19.93;15.30;;;11.30;99.90;;;;;;5010780;28;20864;-66
2021/09/03 01:11:36;;;;;;;18.47;13.33;;;11.30;99.90;;;;;;5010109;28;20481;-66
2021/09/03 01:14:04;;;;;;;20.23;14.90;;;11.40;99.90;;;;;;5010484;28;20488;-66
2021/09/03 01:16:31;;;;;;;17.30;14.73;;;11.20;99.90;;;;;;5010775;28;20495;-66
2021/09/03 01:18:59;;;;;;;18.20;15.80;;;11.20;99.90;;;;;;5010409;28;20457;-66
2021/09/03 01:21:26;;;;;;;19.20;14.93;;;11.10;99.90;;;;;;5010191;28;20530;-66
2021/09/03 01:23:55;;;;;;;21.50;15.70;;;11.10;99.90;;;;;;5013197;28;20463;-66
2021/09/03 01:26:21;;;;;;;18.23;14.90;;;11.10;99.90;;;;;;5014287;28;20454;-66
2021/09/03 01:28:50;;;;;;;18.87;14.40;;;11.00;99.90;;;;;;5014545;28;20456;-66
2021/09/03 01:31:17;;;;;;;17.57;15.70;;;11.00;99.90;;;;;;5013987;28;20451;-66
2021/09/03 01:33:44;;;;;;;19.10;15.77;;;11.00;99.90;;;;;;5014299;28;20465;-66
2021/09/03 01:36:11;;;;;;;17.17;14.90;;;11.00;99.90;;;;;;5014298;28;20451;-66
2021/09/03 01:38:38;;;;;;;22.50;15.60;;;11.00;99.90;;;;;;5014141;28;20453;-66
2021/09/03 01:41:07;;;;;;;21.40;15.60;;;10.90;99.90;;;;;;5014323;28;20445;-66
2021/09/03 01:43:34;;;;;;;19.87;15.90;;;11.00;99.90;;;;;;5013884;28;20509;-66
2021/09/03 01:46:00;;;;;;;17.30;14.10;;;11.00;99.90;;;;;;5014134;28;20900;-66
2021/09/03 01:48:28;;;;;;;15.60;13.80;;;11.00;99.90;;;;;;5013949;28;20537;-66
2021/09/03 01:50:54;;;;;;;15.07;13.13;;;10.90;99.90;;;;;;5013972;28;20958;-66
2021/09/03 01:53:21;;;;;;;19.80;14.90;;;10.90;99.90;;;;;;5013244;28;20576;-66
2021/09/03 01:55:48;;;;;;;17.67;15.77;;;10.90;99.90;;;;;;5014019;28;20865;-66
2021/09/03 01:58:16;;;;;;;16.70;13.67;;;10.90;99.90;;;;;;5013863;28;20448;-66
2021/09/03 02:00:43;;;;;;;18.47;14.70;;;11.00;99.90;;;;;;5013748;28;20456;-66
2021/09/03 02:03:10;;;;;;;19.20;14.60;;;10.90;99.90;;;;;;5013520;28;20813;-66
2021/09/03 02:05:37;;;;;;;17.17;14.60;;;10.80;99.90;;;;;;5013495;28;20464;-66
2021/09/03 02:08:05;;;;;;;18.80;13.53;;;10.90;99.90;;;;;;5013881;28;20829;-66
2021/09/03 02:10:32;;;;;;;19.83;15.00;;;10.90;99.90;;;;;;5013701;28;20454;-66
2021/09/03 02:12:59;;;;;;;18.30;14.93;;;10.90;99.90;;;;;;5013162;28;20626;-66
2021/09/03 02:15:28;;;;;;;16.97;14.53;;;10.90;99.90;;;;;;5013168;28;20457;-66
2021/09/03 02:17:55;;;;;;;20.73;15.50;;;10.80;99.90;;;;;;5014210;28;20534;-66
2021/09/03 02:20:21;;;;;;;19.20;14.63;;;10.90;99.90;;;;;;5014627;28;20536;-66
2021/09/03 02:22:48;;;;;;;17.47;14.33;;;10.90;99.90;;;;;;5014575;28;20488;-66
2021/09/03 02:25:15;;;;;;;20.63;15.90;;;10.90;99.90;;;;;;5014682;28;20460;-66
2021/09/03 02:27:42;;;;;;;21.80;15.87;;;10.80;99.90;;;;;;5014607;28;20449;-66
2021/09/03 02:30:10;;;;;;;19.17;15.13;;;10.80;99.90;;;;;;5013399;28;20821;-67
2021/09/03 02:32:38;;;;;;;18.27;14.47;;;10.80;99.90;;;;;;5012867;28;20498;-66
2021/09/03 02:35:07;;;;;;;17.80;15.03;;;10.80;99.90;;;;;;5012092;28;20453;-66
2021/09/03 02:37:34;;;;;;;19.60;15.10;;;10.80;99.90;;;;;;5012980;28;20524;-66
2021/09/03 02:40:01;;;;;;;18.70;14.23;;;10.80;99.90;;;;;;5013107;28;20460;-66
2021/09/03 02:42:27;;;;;;;22.80;16.43;;;10.80;99.90;;;;;;5012516;28;21120;-66
2021/09/03 02:44:54;;;;;;;18.10;14.87;;;10.70;99.90;;;;;;5012901;28;20492;-66
2021/09/03 02:47:21;;;;;;;19.00;16.03;;;10.80;99.90;;;;;;5012767;28;20460;-66
2021/09/03 02:49:49;;;;;;;18.90;15.40;;;10.80;99.90;;;;;;5012766;28;20445;-66
2021/09/03 02:52:16;;;;;;;20.57;15.07;;;10.70;99.90;;;;;;5012502;28;21134;-66
2021/09/03 02:54:43;;;;;;;18.50;14.63;;;10.70;99.90;;;;;;5012855;28;20464;-66
2021/09/03 02:57:10;;;;;;;15.83;13.70;;;10.60;99.90;;;;;;5012524;28;20821;-66
2021/09/03 02:59:37;;;;;;;17.83;14.17;;;10.60;99.90;;;;;;5012550;28;20480;-66
2021/09/03 03:02:04;;;;;;;20.70;15.97;;;10.60;99.90;;;;;;5012197;28;20446;-66
2021/09/03 03:04:31;;;;;;;18.30;14.13;;;10.60;99.90;;;;;;5012701;28;20462;-66
2021/09/03 03:06:59;;;;;;;17.20;13.10;;;10.50;99.90;;;;;;5012687;28;20462;-66
2021/09/03 03:09:26;;;;;;;18.03;14.17;;;10.50;99.90;;;;;;5012339;28;20455;-66
2021/09/03 03:11:53;;;;;;;21.77;15.57;;;10.50;99.90;;;;;;5012276;28;20450;-66
2021/09/03 03:14:28;;;;;;;16.23;14.40;;;10.40;99.90;;;;;;5012205;28;20481;-66
2021/09/03 03:16:55;;;;;;;19.07;13.50;;;10.40;99.90;;;;;;5012817;28;20458;-66
2021/09/03 03:19:22;;;;;;;16.90;13.93;;;10.30;99.90;;;;;;5012469;28;20556;-66
2021/09/03 03:21:50;;;;;;;18.47;13.20;;;10.30;99.90;;;;;;5012112;28;20462;-66
2021/09/03 03:24:19;;;;;;;16.77;14.00;;;10.30;99.90;;;;;;5012003;28;20482;-66
2021/09/03 03:26:46;;;;;;;17.87;14.20;;;10.30;99.90;;;;;;5012163;28;20464;-66
2021/09/03 03:29:13;;;;;;;20.00;14.93;;;10.30;99.90;;;;;;5012541;28;20473;-66
2021/09/03 03:31:40;;;;;;;17.40;14.40;;;10.40;99.90;;;;;;5011922;28;20458;-66
2021/09/03 03:34:07;;;;;;;17.93;14.27;;;10.40;99.90;;;;;;5012469;28;20906;-66
2021/09/03 03:36:34;;;;;;;15.07;13.47;;;10.30;99.90;;;;;;5012307;28;20877;-67
2021/09/03 03:39:01;;;;;;;19.43;13.30;;;10.30;99.90;;;;;;5011979;28;20767;-66
2021/09/03 03:41:29;;;;;;;18.13;13.90;;;10.10;99.90;;;;;;5011426;28;20452;-67
2021/09/03 03:43:56;;;;;;;16.73;13.70;;;10.00;99.90;;;;;;5011954;28;20720;-66
2021/09/03 03:46:24;;;;;;;16.27;13.50;;;10.20;99.90;;;;;;5012316;28;20533;-66
2021/09/03 03:48:50;;;;;;;17.57;12.50;;;10.20;99.90;;;;;;5011880;28;20460;-66
2021/09/03 03:51:17;;;;;;;16.93;12.97;;;10.20;99.90;;;;;;5011572;28;20446;-66
2021/09/03 03:53:44;;;;;;;16.80;13.83;;;10.20;99.90;;;;;;5011368;28;20485;-66
2021/09/03 03:56:11;;;;;;;15.87;12.97;;;10.20;99.90;;;;;;5011351;28;20933;-66
2021/09/03 03:58:39;;;;;;;13.53;12.00;;;10.20;99.90;;;;;;5011460;28;20491;-66
2021/09/03 04:01:06;;;;;;;17.10;12.83;;;10.20;99.90;;;;;;5011549;28;20450;-66
2021/09/03 04:03:33;;;;;;;16.90;12.70;;;10.00;99.90;;;;;;5011198;28;20492;-66
2021/09/03 04:06:00;;;;;;;19.50;12.50;;;10.00;99.90;;;;;;5011395;28;20445;-66
2021/09/03 04:08:27;;;;;;;15.43;11.87;;;9.90;99.90;;;;;;5011241;28;21049;-66
2021/09/03 04:10:54;;;;;;;17.00;13.80;;;9.80;99.90;;;;;;5011278;28;20457;-66
2021/09/03 04:13:20;;;;;;;17.90;13.90;;;9.90;99.90;;;;;;5010614;28;20489;-66
2021/09/03 04:15:49;;;;;;;16.87;11.93;;;9.90;99.90;;;;;;5011290;28;20464;-66
2021/09/03 04:18:17;;;;;;;18.63;14.20;;;9.90;99.90;;;;;;5011163;28;20446;-66
2021/09/03 04:20:44;;;;;;;15.90;12.80;;;9.90;99.90;;;;;;5011203;28;20633;-66
2021/09/03 04:23:10;;;;;;;18.03;13.77;;;9.80;99.90;;;;;;5010607;28;20463;-66
2021/09/03 04:25:38;;;;;;;17.57;13.70;;;9.70;99.90;;;;;;5010893;28;20441;-66
2021/09/03 04:28:05;;;;;;;20.33;14.20;;;9.80;99.90;;;;;;5011029;28;20446;-66
2021/09/03 04:30:32;;;;;;;20.80;13.90;;;9.80;99.90;;;;;;5010940;28;20461;-66
2021/09/03 04:33:00;;;;;;;16.13;12.80;;;9.80;99.90;;;;;;5010766;28;20500;-66
2021/09/03 04:35:28;;;;;;;15.53;13.80;;;9.70;99.90;;;;;;5010999;28;20462;-66
2021/09/03 04:37:54;;;;;;;17.80;14.87;;;9.60;99.90;;;;;;5010844;28;20442;-66
2021/09/03 04:40:22;;;;;;;19.30;14.10;;;9.60;99.90;;;;;;5011019;28;20450;-66
2021/09/03 04:42:49;;;;;;;23.40;14.70;;;9.60;99.90;;;;;;5010390;28;20544;-66
2021/09/03 04:45:17;;;;;;;20.40;16.43;;;9.50;99.90;;;;;;5010737;28;20440;-66
2021/09/03 04:47:44;;;;;;;23.73;18.00;;;9.60;99.90;;;;;;5010755;28;20446;-66
2021/09/03 04:50:13;;;;;;;23.67;18.17;;;9.50;99.90;;;;;;5010777;28;20474;-67
2021/09/03 04:52:43;;;;;;;22.10;16.83;;;9.50;99.90;;;;;;5010611;28;20931;-66
2021/09/03 04:55:11;;;;;;;19.43;15.80;;;9.60;99.90;;;;;;5010818;28;20445;-66
2021/09/03 04:57:42;;;;;;;20.90;15.53;;;9.70;99.90;;;;;;5011109;28;20540;-66
2021/09/03 05:00:11;;;;;;;17.80;14.27;;;9.70;99.90;;;;;;5010570;28;20550;-66
2021/09/03 05:02:38;;;;;;;23.40;15.53;;;9.60;99.90;;;;;;5010116;28;20466;-66
2021/09/03 05:05:06;;;;;;;19.20;14.90;;;9.60;99.90;;;;;;5010424;28;20624;-67
2021/09/03 05:07:34;;;;;;;21.30;16.63;;;9.50;99.90;;;;;;5010696;28;20450;-67
2021/09/03 05:10:01;;;;;;;17.73;15.17;;;9.60;99.90;;;;;;5010650;28;20461;-66
2021/09/03 05:12:28;;;;;;;16.47;13.60;;;9.60;99.90;;;;;;5009832;28;20446;-67
2021/09/03 05:14:55;;;;;;;19.17;14.40;;;9.70;99.90;;;;;;5010253;28;20464;-67
2021/09/03 05:17:22;;;;;;;17.80;13.97;;;9.80;99.90;;;;;;5010214;28;20946;-67
2021/09/03 05:19:49;;;;;;;20.37;14.13;;;9.80;99.90;;;;;;5010591;28;20450;-67
2021/09/03 05:22:17;;;;;;;19.67;14.00;;;9.70;99.90;;;;;;5009956;28;20545;-67
2021/09/03 05:24:45;;;;;;;18.33;14.30;;;9.70;99.90;;;;;;5010378;28;20445;-66
2021/09/03 05:27:12;;;;;;;18.77;14.73;;;9.80;99.90;;;;;;5010304;28;20460;-66
2021/09/03 05:29:39;;;;;;;21.47;15.87;;;9.80;99.90;;;;;;5010311;28;20553;-66
2021/09/03 05:32:06;;;;;;;21.10;16.27;;;9.80;99.90;;;;;;5009784;28;20827;-66
2021/09/03 05:34:33;;;;;;;21.80;17.30;;;9.90;99.90;;;;;;5010129;28;20485;-66
2021/09/03 05:37:00;;;;;;;25.30;17.90;;;9.90;99.90;;;;;;5009988;28;20453;-66
2021/09/03 05:39:26;;;;;;;24.40;18.50;;;10.00;99.90;;;;;;5010244;28;20548;-66
2021/09/03 05:41:55;;;;;;;18.97;15.83;;;10.10;99.90;;;;;;5009520;28;20797;-67
2021/09/03 05:44:21;;;;;;;24.93;18.63;;;10.20;99.90;;;;;;5009706;28;20468;-67
2021/09/03 05:46:49;;;;;;;21.37;16.83;;;10.20;99.90;;;;;;5010302;28;20851;-67
2021/09/03 05:49:16;;;;;;;23.47;16.87;;;10.40;99.90;;;;;;5010357;28;20445;-67
2021/09/03 05:51:42;;;;;;;19.37;15.67;;;10.50;99.90;;;;;;5009853;28;20446;-66
2021/09/03 05:54:09;;;;;;;22.33;15.20;;;10.70;99.90;;;;;;5009875;28;20489;-67
2021/09/03 05:56:37;;;;;;;16.43;14.33;;;10.80;99.90;;;;;;5009884;28;20472;-66
2021/09/03 05:59:05;;;;;;;18.40;13.97;;;10.80;99.90;;;;;;5009728;28;20450;-66
2021/09/03 06:01:33;;;;;;;18.90;14.33;;;10.80;99.90;;;;;;5009703;28;20537;-66
2021/09/03 06:04:00;;;;;;;16.27;13.53;;;10.80;99.90;;;;;;5009974;28;20466;-66
2021/09/03 06:06:26;;;;;;;21.17;14.73;;;10.90;99.90;;;;;;5009875;28;20460;-67
2021/09/03 06:08:53;;;;;;;17.30;13.47;;;11.00;99.90;;;;;;5010090;28;20540;-67
2021/09/03 06:11:24;;;;;;;18.10;14.20;;;11.20;99.90;;;;;;5013235;28;20532;-67
2021/09/03 06:13:51;;;;;;;18.97;14.90;;;11.30;99.90;;;;;;5013152;28;20489;-67
2021/09/03 06:16:20;;;;;;;15.93;14.23;;;11.50;99.90;;;;;;5013385;28;20962;-67
2021/09/03 06:18:47;;;;;;;18.33;15.13;;;11.60;99.90;;;;;;5013265;28;20467;-67
2021/09/03 06:21:15;;;;;;;25.27;15.53;;;11.70;99.90;;;;;;5013012;28;20444;-67
2021/09/03 06:23:41;;;;;;;21.90;15.23;;;11.70;99.90;;;;;;5012918;28;20468;-67
2021/09/03 06:26:09;;;;;;;18.00;15.80;;;11.80;99.90;;;;;;5013032;28;20459;-67
2021/09/03 06:28:35;;;;;;;19.13;15.47;;;11.80;99.90;;;;;;5013155;28;20471;-66
2021/09/03 06:31:02;;;;;;;23.07;15.20;;;11.90;99.90;;;;;;5013163;28;20943;-66
2021/09/03 06:33:31;;;;;;;20.07;15.90;;;11.90;99.90;;;;;;5012486;28;20588;-66
2021/09/03 06:35:58;;;;;;;17.80;15.87;;;12.00;99.90;;;;;;5012765;28;20457;-66
2021/09/03 06:38:26;;;;;;;20.30;15.63;;;12.00;99.90;;;;;;5012745;28;20460;-67
2021/09/03 06:40:53;;;;;;;17.80;15.90;;;12.10;99.90;;;;;;5012581;28;21130;-67
2021/09/03 06:43:19;;;;;;;18.57;15.60;;;12.20;99.90;;;;;;5012244;28;20468;-66
2021/09/03 06:45:46;;;;;;;19.50;15.70;;;12.30;99.90;;;;;;5014298;28;20452;-67
2021/09/03 06:48:13;;;;;;;23.90;17.00;;;12.40;99.90;;;;;;5012869;28;20536;-67
2021/09/03 06:50:41;;;;;;;22.90;14.87;;;12.50;99.90;;;;;;5012624;28;20529;-67
2021/09/03 06:53:08;;;;;;;19.57;16.83;;;12.50;99.90;;;;;;5011954;28;20489;-67
2021/09/03 06:55:35;;;;;;;18.50;15.57;;;12.60;99.90;;;;;;5012207;28;20446;-67
2021/09/03 06:58:02;;;;;;;21.50;16.97;;;12.70;99.90;;;;;;5012384;28;20504;-67
2021/09/03 07:00:29;;;;;;;25.73;18.07;;;12.80;99.90;;;;;;5012125;28;20481;-67
2021/09/03 07:02:55;;;;;;;22.00;18.17;;;12.80;99.90;;;;;;5011895;28;20496;-67
2021/09/03 07:05:22;;;;;;;23.83;19.23;;;12.90;99.90;;;;;;5012094;28;20964;-67
2021/09/03 07:07:51;;;;;;;21.63;18.50;;;13.10;99.90;;;;;;5012174;28;20545;-67
2021/09/03 07:10:18;;;;;;;26.97;17.43;;;13.20;99.90;;;;;;5012287;28;20450;-67
2021/09/03 07:12:45;;;;;;;21.87;18.30;;;13.20;99.90;;;;;;5011868;28;20844;-66
2021/09/03 07:15:12;;;;;;;22.40;18.97;;;13.40;99.90;;;;;;5013891;28;20500;-67
2021/09/03 07:17:39;;;;;;;23.13;17.80;;;13.40;99.90;;;;;;5015008;28;20541;-67
2021/09/03 07:20:07;;;;;;;22.03;19.67;;;13.50;99.90;;;;;;5014937;28;20812;-67
2021/09/03 07:22:34;;;;;;;21.53;17.70;;;13.60;99.90;;;;;;5014761;28;20553;-67
2021/09/03 07:25:04;;;;;;;20.83;17.40;;;13.70;99.90;;;;;;5013765;28;20528;-67
2021/09/03 07:27:31;;;;;;;22.00;17.60;;;13.80;99.90;;;;;;5011908;28;20461;-67
2021/09/03 07:29:57;;;;;;;25.80;18.40;;;13.90;99.90;;;;;;5011891;28;20832;-67
2021/09/03 07:32:24;;;;;;;23.13;18.83;;;14.00;99.90;;;;;;5011404;28;20553;-67
2021/09/03 07:34:51;;;;;;;23.43;19.10;;;14.10;99.90;;;;;;5011469;28;21004;-67
2021/09/03 07:37:18;;;;;;;23.07;18.40;;;14.30;99.90;;;;;;5011748;28;20446;-67
2021/09/03 07:39:45;;;;;;;20.70;17.80;;;14.30;99.90;;;;;;5011669;28;20542;-66
2021/09/03 07:42:13;;;;;;;20.30;18.17;;;14.40;99.90;;;;;;5011346;28;20581;-67
2021/09/03 07:44:40;;;;;;;21.03;16.87;;;14.50;99.90;;;;;;5011599;28;20453;-67
2021/09/03 07:47:06;;;;;;;16.10;14.37;;;14.60;99.90;;;;;;5011521;28;21333;-67
2021/09/03 07:49:33;;;;;;;17.40;14.77;;;14.70;99.90;;;;;;5011405;28;20453;-68
2021/09/03 07:52:00;;;;;;;20.50;16.03;;;14.90;99.90;;;;;;5011202;28;20438;-68
2021/09/03 07:54:27;;;;;;;18.27;15.60;;;15.00;99.90;;;;;;5011272;28;20503;-68
2021/09/03 07:56:54;;;;;;;17.97;16.00;;;15.10;99.90;;;;;;5011273;28;20500;-68
2021/09/03 07:59:23;;;;;;;20.07;14.83;;;15.20;99.90;;;;;;5011173;28;20456;-68
2021/09/03 08:01:50;;;;;;;18.70;15.85;;;15.30;99.90;;;;;;5009999;28;20533;-68
2021/09/03 08:04:17;;;;;;;18.00;14.73;;;15.40;99.90;;;;;;5010909;28;20219;-69
2021/09/03 08:06:44;;;;;;;16.97;14.47;;;15.50;99.90;;;;;;5011193;28;20454;-66
2021/09/03 08:09:11;;;;;;;18.30;14.23;;;15.60;99.90;;;;;;5010965;28;20448;-67
2021/09/03 08:11:38;;;;;;;16.77;14.87;;;15.70;99.90;;;;;;5010668;28;20544;-67
2021/09/03 08:14:05;;;;;;;20.50;16.20;;;15.90;99.90;;;;;;5010576;28;20577;-67
2021/09/03 08:16:33;;;;;;;20.63;15.13;;;16.10;99.90;;;;;;5010770;28;20442;-67
2021/09/03 08:19:00;;;;;;;18.83;14.77;;;16.30;99.90;;;;;;5010993;28;20540;-67
2021/09/03 08:21:27;;;;;;;24.43;16.17;;;16.40;99.90;;;;;;5010544;28;20454;-67
2021/09/03 08:23:53;;;;;;;16.17;13.53;;;16.50;99.90;;;;;;5010630;28;20476;-68
2021/09/03 08:26:20;;;;;;;14.83;12.77;;;16.70;99.90;;;;;;5010719;28;21008;-68
2021/09/03 08:28:47;;;;;;;13.70;11.93;;;16.80;99.90;;;;;;5010886;28;20452;-68
2021/09/03 08:31:14;;;;;;;15.13;12.03;;;16.80;99.90;;;;;;5010456;28;20450;-67
2021/09/03 08:33:42;;;;;;;15.07;12.27;;;17.00;99.90;;;;;;5009788;28;20469;-67
2021/09/03 08:36:09;;;;;;;11.87;9.77;;;17.10;99.90;;;;;;5010860;28;20453;-68
2021/09/03 08:38:37;;;;;;;12.50;9.87;;;17.20;99.90;;;;;;5011043;28;20454;-68
2021/09/03 08:41:04;;;;;;;11.63;10.17;;;17.40;99.90;;;;;;5010937;28;20603;-68
2021/09/03 08:43:31;;;;;;;10.40;9.03;;;17.40;99.90;;;;;;5010475;28;20474;-68
2021/09/03 08:45:58;;;;;;;11.60;9.13;;;17.50;99.90;;;;;;5011170;28;20603;-68
2021/09/03 08:48:25;;;;;;;9.87;8.77;;;17.60;99.90;;;;;;5010873;28;20540;-68
2021/09/03 08:50:57;;;;;;;9.53;8.10;;;17.80;99.90;;;;;;5003582;28;20834;-67
2021/09/03 08:53:24;;;;;;;9.97;8.90;;;18.00;99.90;;;;;;5002493;28;20476;-67
2021/09/03 08:55:54;;;;;;;9.90;7.90;;;18.10;99.90;;;;;;5002575;28;20569;-67
2021/09/03 08:58:21;;;;;;;11.07;8.10;;;18.30;99.90;;;;;;5002266;28;20478;-67
2021/09/03 09:01:04;;;;;;;10.50;7.10;;;18.50;99.90;;;;;;5001183;28;20581;-67
2021/09/03 09:03:34;;;;;;;9.23;7.20;;;18.70;99.90;;;;;;5004190;28;20544;-67
2021/09/03 09:06:03;;;;;;;7.87;7.03;;;18.90;99.90;;;;;;5010587;28;20810;-68
2021/09/03 09:08:32;;;;;;;9.30;7.83;;;19.00;99.90;;;;;;5010659;28;20536;-66
2021/09/03 09:11:00;;;;;;;7.70;6.90;;;19.20;99.90;;;;;;5010833;28;20474;-66
2021/09/03 09:13:30;;;;;;;10.67;7.83;;;19.40;99.90;;;;;;5009972;28;20561;-67
2021/09/03 09:15:58;;;;;;;9.57;6.90;;;19.60;99.90;;;;;;5010299;28;20490;-66
2021/09/03 09:18:37;;;;;;;8.33;7.43;;;19.80;99.90;;;;;;5010525;28;20450;-67
2021/09/03 09:21:30;;;;;;;8.37;7.10;;;20.20;99.90;;;;;;5010286;28;20832;-66
2021/09/03 09:24:00;;;;;;;8.40;7.13;;;20.70;99.90;;;;;;5000190;28;20497;-67
2021/09/03 09:26:41;;;;;;;6.87;6.17;;;21.30;99.90;;;;;;5010151;28;20539;-68
2021/09/03 09:29:14;;;;;;;7.80;7.00;;;21.80;99.90;;;;;;5010185;28;20442;-68
2021/09/03 09:31:41;;;;;;;8.93;6.73;;;22.30;99.90;;;;;;5009101;28;20442;-68
2021/09/03 09:34:19;;;;;;;7.33;6.50;;;22.50;99.90;;;;;;5009889;28;20501;-68
2021/09/03 09:36:48;;;;;;;7.13;6.20;;;22.90;99.90;;;;;;5009628;28;20540;-68
2021/09/03 09:39:15;;;;;;;7.73;6.93;;;23.30;99.90;;;;;;5010032;28;20881;-68
2021/09/03 09:41:44;;;;;;;7.73;6.83;;;23.70;99.90;;;;;;5009201;28;20481;-66
2021/09/03 09:44:11;;;;;;;8.60;7.30;;;23.90;99.90;;;;;;5011770;28;20461;-68
2021/09/03 09:46:38;;;;;;;7.37;6.67;;;23.90;99.90;;;;;;5013961;28;20545;-68
2021/09/03 09:49:08;;;;;;;7.03;6.33;;;24.40;99.90;;;;;;5013730;28;20520;-68
2021/09/03 09:51:37;;;;;;;7.57;6.87;;;24.70;99.90;;;;;;5013300;28;20553;-68
2021/09/03 09:54:08;;;;;;;7.07;6.37;;;24.70;99.90;;;;;;5013808;28;20493;-66
2021/09/03 09:56:37;;;;;;;7.63;6.53;;;24.80;99.90;;;;;;5013938;28;20485;-65
2021/09/03 09:59:07;;;;;;;7.23;6.10;;;24.90;99.90;;;;;;5013884;28;20501;-68
2021/09/03 10:01:35;;;;;;;6.73;6.03;;;25.10;99.90;;;;;;5013394;28;20456;-66
2021/09/03 10:04:06;;;;;;;8.00;7.20;;;25.40;99.90;;;;;;5013393;28;20885;-68
2021/09/03 10:06:34;;;;;;;7.07;6.37;;;25.50;99.90;;;;;;5013517;28;20446;-68
2021/09/03 10:09:03;;;;;;;7.83;6.50;;;25.40;99.90;;;;;;5013398;28;20452;-66
2021/09/03 10:11:31;;;;;;;7.37;6.20;;;25.70;99.90;;;;;;5013224;28;20893;-68
2021/09/03 10:13:58;;;;;;;7.07;6.37;;;25.90;99.90;;;;;;5013166;28;20588;-68
2021/09/03 10:16:25;;;;;;;7.23;6.47;;;26.00;99.90;;;;;;5013322;28;20452;-68
2021/09/03 10:18:56;;;;;;;6.63;6.03;;;26.10;99.90;;;;;;5013770;28;20441;-68
2021/09/03 10:21:24;;;;;;;7.97;6.93;;;26.40;99.90;;;;;;5013397;28;20497;-68
2021/09/03 10:23:57;;;;;;;7.20;6.10;;;26.60;99.90;;;;;;5013367;28;20552;-68
2021/09/03 10:26:27;;;;;;;6.80;6.10;;;26.70;99.80;;;;;;5013409;28;20453;-68
2021/09/03 10:29:21;;;;;;;7.07;6.37;;;26.80;98.80;;;;;;5013434;28;20458;-68
2021/09/03 10:32:22;;;;;;;6.70;6.00;;;27.00;98.40;;;;;;5013124;28;20545;-68
2021/09/03 10:35:00;;;;;;;7.30;6.60;;;27.20;96.60;;;;;;5012692;28;20481;-66
2021/09/03 10:37:37;;;;;;;7.93;5.33;;;27.30;97.30;;;;;;5012596;28;20453;-68
2021/09/03 10:40:14;;;;;;;7.03;6.33;;;27.70;97.70;;;;;;5012811;28;20445;-66
2021/09/03 10:42:59;;;;;;;7.37;6.67;;;27.70;96.00;;;;;;5012421;28;20468;-66
2021/09/03 10:45:34;;;;;;;6.60;6.00;;;28.10;96.50;;;;;;5013006;28;20585;-66
2021/09/03 10:48:08;;;;;;;7.10;6.27;;;28.20;96.10;;;;;;5012734;28;20507;-66
2021/09/03 10:50:36;;;;;;;6.53;5.90;;;28.30;96.60;;;;;;5012504;28;20446;-66
2021/09/03 10:53:27;;;;;;;7.90;5.60;;;28.30;96.70;;;;;;5012172;28;20840;-66
2021/09/03 10:56:16;;;;;;;6.97;6.27;;;28.40;95.20;;;;;;5011512;28;20841;-67
2021/09/03 10:58:47;;;;;;;6.50;5.43;;;28.60;95.10;;;;;;5005722;28;20454;-67
2021/09/03 11:01:47;;;;;;;6.47;5.77;;;28.90;93.70;;;;;;5012394;28;20875;-67
2021/09/03 11:04:17;;;;;;;6.97;6.27;;;29.20;93.40;;;;;;5012018;28;20470;-67
2021/09/03 11:06:55;;;;;;;7.27;6.47;;;29.40;93.60;;;;;;5012292;28;21076;-67
2021/09/03 11:09:24;;;;;;;8.33;6.40;;;29.40;94.80;;;;;;5012113;28;20445;-67
2021/09/03 11:11:53;;;;;;;8.13;6.33;;;29.70;91.00;;;;;;5011746;28;20451;-67
2021/09/03 11:14:22;;;;;;;7.17;6.20;;;29.70;92.00;;;;;;5011696;28;20482;-67
2021/09/03 11:16:51;;;;;;;8.30;6.00;;;29.90;92.80;;;;;;5011927;28;20452;-67
2021/09/03 11:19:21;;;;;;;6.90;6.20;;;30.30;91.20;;;;;;5012053;28;20445;-67
2021/09/03 11:21:50;;;;;;;7.23;6.43;;;30.30;91.00;;;;;;5011809;28;20450;-67
2021/09/03 11:24:19;;;;;;;6.53;5.87;;;30.70;87.50;;;;;;5011830;28;20472;-67
2021/09/03 11:26:46;;;;;;;6.20;5.60;;;31.10;84.10;;;;;;5011755;28;20460;-67
2021/09/03 11:29:23;;;;;;;6.50;5.30;;;31.70;85.90;;;;;;5011694;28;20441;-67
2021/09/03 11:31:58;;;;;;;6.83;6.13;;;31.80;87.10;;;;;;5011319;28;20473;-67
2021/09/03 11:34:47;;;;;;;6.17;5.60;;;31.80;84.10;;;;;;5011535;28;20479;-67
2021/09/03 11:37:26;;;;;;;6.40;5.27;;;32.30;83.60;;;;;;5011740;28;20512;-67
2021/09/03 11:39:55;;;;;;;6.37;5.30;;;32.80;79.40;;;;;;5011630;28;20438;-68
2021/09/03 11:42:24;;;;;;;6.50;5.83;;;33.20;82.90;;;;;;5011235;28;20449;-67
2021/09/03 11:44:57;;;;;;;6.30;5.70;;;33.40;77.70;;;;;;5011836;28;20508;-67
2021/09/03 11:47:31;;;;;;;5.50;4.97;;;33.60;79.20;;;;;;5011525;28;20481;-67
2021/09/03 11:50:00;;;;;;;6.97;6.27;;;34.10;74.80;;;;;;5011778;28;20473;-67
2021/09/03 11:52:29;;;;;;;7.43;5.30;;;34.40;74.80;;;;;;5011393;28;20469;-67
2021/09/03 11:54:56;;;;;;;5.80;5.27;;;34.50;71.90;;;;;;5011383;28;20485;-67
2021/09/03 11:57:24;;;;;;;5.73;5.13;;;34.60;71.70;;;;;;5011654;28;20448;-67
2021/09/03 11:59:56;;;;;;;6.43;5.83;;;35.00;71.60;;;;;;5011730;28;20458;-67
2021/09/03 12:02:23;;;;;;;5.70;5.20;;;35.30;71.90;;;;;;5011171;28;20876;-67
2021/09/03 12:04:51;;;;;;;7.53;5.87;;;35.50;67.90;;;;;;5011364;28;20452;-68
2021/09/03 12:07:20;;;;;;;10.13;6.43;;;35.30;61.50;;;;;;5011661;28;20480;-67
2021/09/03 12:09:48;;;;;;;6.60;5.50;;;35.30;65.00;;;;;;5011332;28;21044;-68
2021/09/03 12:12:23;;;;;;;5.67;5.07;;;35.30;63.70;;;;;;5011022;28;20923;-68
2021/09/03 12:14:54;;;;;;;5.50;5.00;;;35.50;62.20;;;;;;5010962;28;20463;-67
2021/09/03 12:17:21;;;;;;;6.50;5.87;;;35.80;63.80;;;;;;5010938;28;20453;-67
2021/09/03 12:19:48;;;;;;;7.03;5.87;;;35.60;61.30;;;;;;5011211;28;20450;-67
2021/09/03 12:22:20;;;;;;;5.70;5.10;;;35.90;63.50;;;;;;5010765;28;20524;-67
2021/09/03 12:24:50;;;;;;;5.50;5.00;;;36.10;63.80;;;;;;5011018;28;20865;-67
2021/09/03 12:27:17;;;;;;;5.53;4.93;;;36.10;62.50;;;;;;5010782;28;21101;-67
2021/09/03 12:29:44;;;;;;;6.17;4.87;;;36.40;57.10;;;;;;5010734;28;20998;-67
2021/09/03 12:32:12;;;;;;;5.43;4.93;;;36.90;58.10;;;;;;5010351;28;20449;-67
2021/09/03 12:34:41;;;;;;;5.40;4.87;;;37.00;58.10;;;;;;5010697;28;20470;-67
2021/09/03 12:37:10;;;;;;;7.67;5.63;;;36.90;59.70;;;;;;5010617;28;20441;-68
2021/09/03 12:39:40;;;;;;;5.33;4.83;;;37.60;55.60;;;;;;5010593;28;21021;-67